sensor_id;sensor_type;location;lat;lon;timestamp;P1;durP1;ratioP1;P2;durP2;ratioP2
74656;SDS011;63185;45.642;13.764;2023-04-24T00:01:47;13.10;;;5.35;;
74656;SDS011;63185;45.642;13.764;2023-04-24T00:04:13;9.07;;;5.30;;
74656;SDS011;63185;45.642;13.764;2023-04-24T00:06:41;8.88;;;5.05;;
74656;SDS011;63185;45.642;13.764;2023-04-24T00:09:07;13.07;;;5.15;;
74656;SDS011;63185;45.642;13.764;2023-04-24T00:11:35;11.43;;;5.10;;
74656;SDS011;63185;45.642;13.764;2023-04-24T00:14:01;10.88;;;5.82;;
74656;SDS011;63185;45.642;13.764;2023-04-24T00:16:27;8.95;;;5.38;;
74656;SDS011;63185;45.642;13.764;2023-04-24T00:18:53;10.40;;;6.45;;
74656;SDS011;63185;45.642;13.764;2023-04-24T00:21:19;12.43;;;5.70;;
74656;SDS011;63185;45.642;13.764;2023-04-24T00:23:45;11.20;;;5.75;;
74656;SDS011;63185;45.642;13.764;2023-04-24T00:26:12;11.07;;;5.80;;
74656;SDS011;63185;45.642;13.764;2023-04-24T00:28:37;11.85;;;5.82;;
74656;SDS011;63185;45.642;13.764;2023-04-24T00:31:03;12.30;;;5.70;;
74656;SDS011;63185;45.642;13.764;2023-04-24T00:33:29;10.13;;;6.00;;
74656;SDS011;63185;45.642;13.764;2023-04-24T00:35:55;9.25;;;5.90;;
74656;SDS011;63185;45.642;13.764;2023-04-24T00:38:20;9.93;;;5.68;;
74656;SDS011;63185;45.642;13.764;2023-04-24T00:40:47;10.85;;;6.68;;
74656;SDS011;63185;45.642;13.764;2023-04-24T00:43:15;16.33;;;6.57;;
74656;SDS011;63185;45.642;13.764;2023-04-24T00:45:41;11.82;;;6.60;;
74656;SDS011;63185;45.642;13.764;2023-04-24T00:48:07;11.27;;;6.40;;
74656;SDS011;63185;45.642;13.764;2023-04-24T00:50:33;15.63;;;6.50;;
74656;SDS011;63185;45.642;13.764;2023-04-24T00:53:01;15.07;;;6.75;;
74656;SDS011;63185;45.642;13.764;2023-04-24T00:55:26;10.43;;;6.65;;
74656;SDS011;63185;45.642;13.764;2023-04-24T00:57:52;14.45;;;6.72;;
74656;SDS011;63185;45.642;13.764;2023-04-24T01:00:18;14.05;;;7.05;;
74656;SDS011;63185;45.642;13.764;2023-04-24T01:02:44;12.55;;;6.80;;
74656;SDS011;63185;45.642;13.764;2023-04-24T01:05:12;12.60;;;6.50;;
74656;SDS011;63185;45.642;13.764;2023-04-24T01:07:40;14.48;;;6.38;;
74656;SDS011;63185;45.642;13.764;2023-04-24T01:10:10;11.85;;;6.45;;
74656;SDS011;63185;45.642;13.764;2023-04-24T01:12:37;13.88;;;7.38;;
74656;SDS011;63185;45.642;13.764;2023-04-24T01:15:03;11.52;;;7.22;;
74656;SDS011;63185;45.642;13.764;2023-04-24T01:17:31;11.82;;;6.90;;
74656;SDS011;63185;45.642;13.764;2023-04-24T01:19:57;13.30;;;6.78;;
74656;SDS011;63185;45.642;13.764;2023-04-24T01:22:24;11.70;;;6.45;;
74656;SDS011;63185;45.642;13.764;2023-04-24T01:24:51;15.55;;;7.13;;
74656;SDS011;63185;45.642;13.764;2023-04-24T01:27:17;10.70;;;6.53;;
74656;SDS011;63185;45.642;13.764;2023-04-24T01:29:43;14.68;;;7.10;;
74656;SDS011;63185;45.642;13.764;2023-04-24T01:32:09;10.48;;;6.82;;
74656;SDS011;63185;45.642;13.764;2023-04-24T01:34:35;11.40;;;7.25;;
74656;SDS011;63185;45.642;13.764;2023-04-24T01:37:01;11.73;;;7.20;;
74656;SDS011;63185;45.642;13.764;2023-04-24T01:39:26;11.80;;;7.15;;
74656;SDS011;63185;45.642;13.764;2023-04-24T01:41:53;12.88;;;7.28;;
74656;SDS011;63185;45.642;13.764;2023-04-24T01:44:20;9.90;;;6.65;;
74656;SDS011;63185;45.642;13.764;2023-04-24T01:46:46;12.43;;;7.32;;
74656;SDS011;63185;45.642;13.764;2023-04-24T01:49:12;13.88;;;6.63;;
74656;SDS011;63185;45.642;13.764;2023-04-24T01:51:37;10.73;;;6.43;;
74656;SDS011;63185;45.642;13.764;2023-04-24T01:54:03;11.90;;;7.00;;
74656;SDS011;63185;45.642;13.764;2023-04-24T01:56:30;18.95;;;7.22;;
74656;SDS011;63185;45.642;13.764;2023-04-24T01:58:59;12.98;;;7.35;;
74656;SDS011;63185;45.642;13.764;2023-04-24T02:01:26;14.98;;;7.25;;
74656;SDS011;63185;45.642;13.764;2023-04-24T02:03:51;12.77;;;6.85;;
74656;SDS011;63185;45.642;13.764;2023-04-24T02:06:17;15.00;;;6.75;;
74656;SDS011;63185;45.642;13.764;2023-04-24T02:08:43;15.50;;;7.30;;
74656;SDS011;63185;45.642;13.764;2023-04-24T02:11:09;14.93;;;6.95;;
74656;SDS011;63185;45.642;13.764;2023-04-24T02:13:35;15.73;;;7.10;;
74656;SDS011;63185;45.642;13.764;2023-04-24T02:16:01;12.48;;;7.13;;
74656;SDS011;63185;45.642;13.764;2023-04-24T02:18:27;23.02;;;7.25;;
74656;SDS011;63185;45.642;13.764;2023-04-24T02:20:53;18.42;;;7.53;;
74656;SDS011;63185;45.642;13.764;2023-04-24T02:23:19;12.43;;;7.43;;
74656;SDS011;63185;45.642;13.764;2023-04-24T02:25:45;13.27;;;6.85;;
74656;SDS011;63185;45.642;13.764;2023-04-24T02:28:11;14.75;;;7.00;;
74656;SDS011;63185;45.642;13.764;2023-04-24T02:30:36;14.15;;;7.18;;
74656;SDS011;63185;45.642;13.764;2023-04-24T02:33:02;20.00;;;7.03;;
74656;SDS011;63185;45.642;13.764;2023-04-24T02:35:28;12.82;;;7.10;;
74656;SDS011;63185;45.642;13.764;2023-04-24T02:37:54;12.45;;;6.47;;
74656;SDS011;63185;45.642;13.764;2023-04-24T02:40:20;15.63;;;7.07;;
74656;SDS011;63185;45.642;13.764;2023-04-24T02:42:46;15.27;;;6.80;;
74656;SDS011;63185;45.642;13.764;2023-04-24T02:45:11;19.05;;;7.28;;
74656;SDS011;63185;45.642;13.764;2023-04-24T02:47:37;11.10;;;6.28;;
74656;SDS011;63185;45.642;13.764;2023-04-24T02:50:03;16.90;;;6.80;;
74656;SDS011;63185;45.642;13.764;2023-04-24T02:52:29;13.95;;;6.50;;
74656;SDS011;63185;45.642;13.764;2023-04-24T02:54:55;13.35;;;6.68;;
74656;SDS011;63185;45.642;13.764;2023-04-24T02:57:21;14.52;;;7.20;;
74656;SDS011;63185;45.642;13.764;2023-04-24T02:59:46;14.75;;;7.07;;
74656;SDS011;63185;45.642;13.764;2023-04-24T03:02:12;13.25;;;7.15;;
74656;SDS011;63185;45.642;13.764;2023-04-24T03:04:38;13.82;;;6.78;;
74656;SDS011;63185;45.642;13.764;2023-04-24T03:07:05;11.63;;;6.78;;
74656;SDS011;63185;45.642;13.764;2023-04-24T03:09:31;18.05;;;7.40;;
74656;SDS011;63185;45.642;13.764;2023-04-24T03:11:56;14.13;;;7.63;;
74656;SDS011;63185;45.642;13.764;2023-04-24T03:14:23;16.75;;;8.27;;
74656;SDS011;63185;45.642;13.764;2023-04-24T03:16:49;16.35;;;8.13;;
74656;SDS011;63185;45.642;13.764;2023-04-24T03:19:15;16.10;;;7.88;;
74656;SDS011;63185;45.642;13.764;2023-04-24T03:21:40;19.70;;;8.43;;
74656;SDS011;63185;45.642;13.764;2023-04-24T03:24:07;17.58;;;8.05;;
74656;SDS011;63185;45.642;13.764;2023-04-24T03:26:33;12.80;;;8.05;;
74656;SDS011;63185;45.642;13.764;2023-04-24T03:28:59;15.05;;;7.90;;
74656;SDS011;63185;45.642;13.764;2023-04-24T03:31:24;13.38;;;7.82;;
74656;SDS011;63185;45.642;13.764;2023-04-24T03:33:50;13.40;;;7.18;;
74656;SDS011;63185;45.642;13.764;2023-04-24T03:36:16;16.52;;;7.75;;
74656;SDS011;63185;45.642;13.764;2023-04-24T03:38:42;14.70;;;7.50;;
74656;SDS011;63185;45.642;13.764;2023-04-24T03:41:08;18.27;;;7.72;;
74656;SDS011;63185;45.642;13.764;2023-04-24T03:43:34;13.90;;;7.78;;
74656;SDS011;63185;45.642;13.764;2023-04-24T03:46:00;17.25;;;7.13;;
74656;SDS011;63185;45.642;13.764;2023-04-24T03:48:25;14.93;;;7.28;;
74656;SDS011;63185;45.642;13.764;2023-04-24T03:50:51;12.85;;;7.00;;
74656;SDS011;63185;45.642;13.764;2023-04-24T03:53:17;14.77;;;6.70;;
74656;SDS011;63185;45.642;13.764;2023-04-24T03:55:42;10.18;;;6.45;;
74656;SDS011;63185;45.642;13.764;2023-04-24T03:58:08;13.95;;;7.22;;
74656;SDS011;63185;45.642;13.764;2023-04-24T04:00:34;15.77;;;7.30;;
74656;SDS011;63185;45.642;13.764;2023-04-24T04:03:00;14.30;;;7.10;;
74656;SDS011;63185;45.642;13.764;2023-04-24T04:05:26;14.45;;;7.18;;
74656;SDS011;63185;45.642;13.764;2023-04-24T04:07:51;14.65;;;7.15;;
74656;SDS011;63185;45.642;13.764;2023-04-24T04:10:17;15.82;;;7.00;;
74656;SDS011;63185;45.642;13.764;2023-04-24T04:12:43;12.35;;;6.72;;
74656;SDS011;63185;45.642;13.764;2023-04-24T04:15:09;14.48;;;6.18;;
74656;SDS011;63185;45.642;13.764;2023-04-24T04:17:35;15.55;;;7.13;;
74656;SDS011;63185;45.642;13.764;2023-04-24T04:20:02;17.45;;;7.15;;
74656;SDS011;63185;45.642;13.764;2023-04-24T04:22:33;14.82;;;6.78;;
74656;SDS011;63185;45.642;13.764;2023-04-24T04:24:59;15.07;;;6.85;;
74656;SDS011;63185;45.642;13.764;2023-04-24T04:27:24;13.40;;;6.85;;
74656;SDS011;63185;45.642;13.764;2023-04-24T04:29:51;16.83;;;6.78;;
74656;SDS011;63185;45.642;13.764;2023-04-24T04:32:17;12.52;;;6.68;;
74656;SDS011;63185;45.642;13.764;2023-04-24T04:34:43;16.17;;;7.05;;
74656;SDS011;63185;45.642;13.764;2023-04-24T04:37:10;18.38;;;6.97;;
74656;SDS011;63185;45.642;13.764;2023-04-24T04:39:37;16.05;;;6.45;;
74656;SDS011;63185;45.642;13.764;2023-04-24T04:42:03;13.75;;;6.90;;
74656;SDS011;63185;45.642;13.764;2023-04-24T04:44:29;12.40;;;6.57;;
74656;SDS011;63185;45.642;13.764;2023-04-24T04:46:57;19.57;;;7.13;;
74656;SDS011;63185;45.642;13.764;2023-04-24T04:49:25;12.13;;;6.60;;
74656;SDS011;63185;45.642;13.764;2023-04-24T04:51:53;14.32;;;6.50;;
74656;SDS011;63185;45.642;13.764;2023-04-24T04:54:19;14.15;;;7.10;;
74656;SDS011;63185;45.642;13.764;2023-04-24T04:56:44;13.57;;;6.82;;
74656;SDS011;63185;45.642;13.764;2023-04-24T04:59:10;16.42;;;7.10;;
74656;SDS011;63185;45.642;13.764;2023-04-24T05:01:37;13.48;;;6.50;;
74656;SDS011;63185;45.642;13.764;2023-04-24T05:04:03;14.02;;;6.75;;
74656;SDS011;63185;45.642;13.764;2023-04-24T05:06:29;20.08;;;6.90;;
74656;SDS011;63185;45.642;13.764;2023-04-24T05:08:55;13.85;;;6.95;;
74656;SDS011;63185;45.642;13.764;2023-04-24T05:11:22;15.65;;;6.75;;
74656;SDS011;63185;45.642;13.764;2023-04-24T05:13:48;14.60;;;6.93;;
74656;SDS011;63185;45.642;13.764;2023-04-24T05:16:14;15.43;;;7.10;;
74656;SDS011;63185;45.642;13.764;2023-04-24T05:18:39;11.82;;;6.60;;
74656;SDS011;63185;45.642;13.764;2023-04-24T05:21:05;14.95;;;7.93;;
74656;SDS011;63185;45.642;13.764;2023-04-24T05:23:31;14.27;;;7.82;;
74656;SDS011;63185;45.642;13.764;2023-04-24T05:25:57;15.02;;;7.78;;
74656;SDS011;63185;45.642;13.764;2023-04-24T05:28:22;15.73;;;7.93;;
74656;SDS011;63185;45.642;13.764;2023-04-24T05:30:48;17.90;;;7.90;;
74656;SDS011;63185;45.642;13.764;2023-04-24T05:33:14;21.65;;;8.30;;
74656;SDS011;63185;45.642;13.764;2023-04-24T05:35:40;18.10;;;7.72;;
74656;SDS011;63185;45.642;13.764;2023-04-24T05:38:12;20.02;;;8.57;;
74656;SDS011;63185;45.642;13.764;2023-04-24T05:40:38;18.38;;;7.75;;
74656;SDS011;63185;45.642;13.764;2023-04-24T05:43:04;16.45;;;8.18;;
74656;SDS011;63185;45.642;13.764;2023-04-24T05:45:30;17.95;;;8.48;;
74656;SDS011;63185;45.642;13.764;2023-04-24T05:47:56;15.38;;;8.40;;
74656;SDS011;63185;45.642;13.764;2023-04-24T05:50:22;15.10;;;7.88;;
74656;SDS011;63185;45.642;13.764;2023-04-24T05:52:48;13.32;;;7.43;;
74656;SDS011;63185;45.642;13.764;2023-04-24T05:55:14;19.00;;;7.93;;
74656;SDS011;63185;45.642;13.764;2023-04-24T05:57:42;19.60;;;7.80;;
74656;SDS011;63185;45.642;13.764;2023-04-24T06:00:08;16.48;;;8.07;;
74656;SDS011;63185;45.642;13.764;2023-04-24T06:02:37;15.35;;;7.43;;
74656;SDS011;63185;45.642;13.764;2023-04-24T06:05:03;16.58;;;7.88;;
74656;SDS011;63185;45.642;13.764;2023-04-24T06:07:30;15.55;;;7.63;;
74656;SDS011;63185;45.642;13.764;2023-04-24T06:09:56;14.88;;;7.60;;
74656;SDS011;63185;45.642;13.764;2023-04-24T06:12:22;19.13;;;8.50;;
74656;SDS011;63185;45.642;13.764;2023-04-24T06:14:47;18.65;;;7.70;;
74656;SDS011;63185;45.642;13.764;2023-04-24T06:17:13;15.45;;;6.63;;
74656;SDS011;63185;45.642;13.764;2023-04-24T06:19:39;16.02;;;6.85;;
74656;SDS011;63185;45.642;13.764;2023-04-24T06:22:05;15.23;;;7.30;;
74656;SDS011;63185;45.642;13.764;2023-04-24T06:24:31;18.08;;;8.10;;
74656;SDS011;63185;45.642;13.764;2023-04-24T06:26:57;31.35;;;7.57;;
74656;SDS011;63185;45.642;13.764;2023-04-24T06:29:24;24.98;;;8.43;;
74656;SDS011;63185;45.642;13.764;2023-04-24T06:31:50;23.42;;;8.48;;
74656;SDS011;63185;45.642;13.764;2023-04-24T06:34:16;21.95;;;7.88;;
74656;SDS011;63185;45.642;13.764;2023-04-24T06:36:42;25.38;;;7.57;;
74656;SDS011;63185;45.642;13.764;2023-04-24T06:39:07;27.60;;;9.05;;
74656;SDS011;63185;45.642;13.764;2023-04-24T06:41:33;22.00;;;8.18;;
74656;SDS011;63185;45.642;13.764;2023-04-24T06:43:59;28.40;;;9.73;;
74656;SDS011;63185;45.642;13.764;2023-04-24T06:46:25;18.67;;;9.93;;
74656;SDS011;63185;45.642;13.764;2023-04-24T06:48:52;18.45;;;10.00;;
74656;SDS011;63185;45.642;13.764;2023-04-24T06:53:48;19.45;;;9.20;;
74656;SDS011;63185;45.642;13.764;2023-04-24T06:56:14;20.23;;;9.02;;
74656;SDS011;63185;45.642;13.764;2023-04-24T06:58:41;17.85;;;8.88;;
74656;SDS011;63185;45.642;13.764;2023-04-24T07:01:07;17.95;;;8.93;;
74656;SDS011;63185;45.642;13.764;2023-04-24T07:03:33;16.52;;;8.65;;
74656;SDS011;63185;45.642;13.764;2023-04-24T07:05:58;17.65;;;8.98;;
74656;SDS011;63185;45.642;13.764;2023-04-24T07:08:24;17.15;;;9.25;;
74656;SDS011;63185;45.642;13.764;2023-04-24T07:10:50;18.50;;;8.75;;
74656;SDS011;63185;45.642;13.764;2023-04-24T07:13:16;17.70;;;8.93;;
74656;SDS011;63185;45.642;13.764;2023-04-24T07:15:42;15.90;;;8.07;;
74656;SDS011;63185;45.642;13.764;2023-04-24T07:18:08;17.92;;;9.35;;
74656;SDS011;63185;45.642;13.764;2023-04-24T07:20:34;14.40;;;8.48;;
74656;SDS011;63185;45.642;13.764;2023-04-24T07:23:00;14.40;;;8.15;;
74656;SDS011;63185;45.642;13.764;2023-04-24T07:25:26;17.35;;;8.52;;
74656;SDS011;63185;45.642;13.764;2023-04-24T07:27:52;18.25;;;8.30;;
74656;SDS011;63185;45.642;13.764;2023-04-24T07:30:18;16.77;;;8.63;;
74656;SDS011;63185;45.642;13.764;2023-04-24T07:32:44;17.23;;;8.20;;
74656;SDS011;63185;45.642;13.764;2023-04-24T07:35:09;15.63;;;9.00;;
74656;SDS011;63185;45.642;13.764;2023-04-24T07:37:35;17.75;;;9.07;;
74656;SDS011;63185;45.642;13.764;2023-04-24T07:40:01;19.58;;;8.75;;
74656;SDS011;63185;45.642;13.764;2023-04-24T07:42:28;18.92;;;8.63;;
74656;SDS011;63185;45.642;13.764;2023-04-24T07:44:55;14.98;;;8.55;;
74656;SDS011;63185;45.642;13.764;2023-04-24T07:47:21;23.40;;;10.27;;
74656;SDS011;63185;45.642;13.764;2023-04-24T07:49:47;14.73;;;9.18;;
74656;SDS011;63185;45.642;13.764;2023-04-24T07:52:13;15.23;;;9.77;;
74656;SDS011;63185;45.642;13.764;2023-04-24T07:54:38;21.67;;;10.07;;
74656;SDS011;63185;45.642;13.764;2023-04-24T07:57:04;21.55;;;10.60;;
74656;SDS011;63185;45.642;13.764;2023-04-24T07:59:31;22.17;;;10.82;;
74656;SDS011;63185;45.642;13.764;2023-04-24T08:01:57;22.05;;;10.65;;
74656;SDS011;63185;45.642;13.764;2023-04-24T08:04:23;26.88;;;11.30;;
74656;SDS011;63185;45.642;13.764;2023-04-24T08:06:48;21.92;;;11.50;;
74656;SDS011;63185;45.642;13.764;2023-04-24T08:09:15;23.77;;;12.35;;
74656;SDS011;63185;45.642;13.764;2023-04-24T08:11:40;23.90;;;11.45;;
74656;SDS011;63185;45.642;13.764;2023-04-24T08:14:06;21.88;;;11.27;;
74656;SDS011;63185;45.642;13.764;2023-04-24T08:16:32;25.77;;;12.57;;
74656;SDS011;63185;45.642;13.764;2023-04-24T08:18:58;22.30;;;11.23;;
74656;SDS011;63185;45.642;13.764;2023-04-24T08:21:24;21.23;;;11.38;;
74656;SDS011;63185;45.642;13.764;2023-04-24T08:23:52;19.15;;;10.65;;
74656;SDS011;63185;45.642;13.764;2023-04-24T08:26:17;19.58;;;10.80;;
74656;SDS011;63185;45.642;13.764;2023-04-24T08:28:43;19.30;;;10.07;;
74656;SDS011;63185;45.642;13.764;2023-04-24T08:31:09;16.88;;;9.43;;
74656;SDS011;63185;45.642;13.764;2023-04-24T08:33:35;16.25;;;9.90;;
74656;SDS011;63185;45.642;13.764;2023-04-24T08:36:04;16.20;;;9.90;;
74656;SDS011;63185;45.642;13.764;2023-04-24T08:38:30;17.25;;;9.05;;
74656;SDS011;63185;45.642;13.764;2023-04-24T08:40:57;16.40;;;9.25;;
74656;SDS011;63185;45.642;13.764;2023-04-24T08:43:25;15.90;;;8.63;;
74656;SDS011;63185;45.642;13.764;2023-04-24T08:45:51;17.77;;;9.02;;
74656;SDS011;63185;45.642;13.764;2023-04-24T08:48:18;14.05;;;8.30;;
74656;SDS011;63185;45.642;13.764;2023-04-24T08:50:44;15.23;;;8.60;;
74656;SDS011;63185;45.642;13.764;2023-04-24T08:53:10;14.88;;;7.65;;
74656;SDS011;63185;45.642;13.764;2023-04-24T08:55:37;14.27;;;8.00;;
74656;SDS011;63185;45.642;13.764;2023-04-24T08:58:03;14.65;;;7.63;;
74656;SDS011;63185;45.642;13.764;2023-04-24T09:00:29;11.93;;;7.43;;
74656;SDS011;63185;45.642;13.764;2023-04-24T09:02:55;12.60;;;7.28;;
74656;SDS011;63185;45.642;13.764;2023-04-24T09:05:21;11.88;;;7.63;;
74656;SDS011;63185;45.642;13.764;2023-04-24T09:07:55;13.05;;;6.85;;
74656;SDS011;63185;45.642;13.764;2023-04-24T09:10:23;11.90;;;6.50;;
74656;SDS011;63185;45.642;13.764;2023-04-24T09:12:50;9.02;;;5.97;;
74656;SDS011;63185;45.642;13.764;2023-04-24T09:15:17;13.15;;;6.05;;
74656;SDS011;63185;45.642;13.764;2023-04-24T09:17:45;9.73;;;5.78;;
74656;SDS011;63185;45.642;13.764;2023-04-24T09:20:11;12.55;;;5.68;;
74656;SDS011;63185;45.642;13.764;2023-04-24T09:22:37;10.60;;;5.95;;
74656;SDS011;63185;45.642;13.764;2023-04-24T09:25:03;10.77;;;6.13;;
74656;SDS011;63185;45.642;13.764;2023-04-24T09:27:33;14.30;;;6.25;;
74656;SDS011;63185;45.642;13.764;2023-04-24T09:30:00;9.57;;;6.55;;
74656;SDS011;63185;45.642;13.764;2023-04-24T09:32:26;12.52;;;6.88;;
74656;SDS011;63185;45.642;13.764;2023-04-24T09:35:13;11.52;;;6.50;;
74656;SDS011;63185;45.642;13.764;2023-04-24T09:40:15;14.95;;;6.70;;
74656;SDS011;63185;45.642;13.764;2023-04-24T09:43:03;15.20;;;6.75;;
74656;SDS011;63185;45.642;13.764;2023-04-24T09:45:28;9.63;;;6.22;;
74656;SDS011;63185;45.642;13.764;2023-04-24T09:48:01;11.18;;;6.57;;
74656;SDS011;63185;45.642;13.764;2023-04-24T09:50:27;9.20;;;5.40;;
74656;SDS011;63185;45.642;13.764;2023-04-24T09:52:58;8.18;;;4.50;;
74656;SDS011;63185;45.642;13.764;2023-04-24T09:57:53;12.65;;;5.38;;
74656;SDS011;63185;45.642;13.764;2023-04-24T10:00:27;12.80;;;5.07;;
74656;SDS011;63185;45.642;13.764;2023-04-24T10:03:04;12.43;;;5.28;;
74656;SDS011;63185;45.642;13.764;2023-04-24T10:05:34;12.93;;;5.60;;
74656;SDS011;63185;45.642;13.764;2023-04-24T10:08:05;9.13;;;5.35;;
74656;SDS011;63185;45.642;13.764;2023-04-24T10:10:33;12.00;;;4.80;;
74656;SDS011;63185;45.642;13.764;2023-04-24T10:13:00;9.55;;;4.80;;
74656;SDS011;63185;45.642;13.764;2023-04-24T10:15:26;10.30;;;4.90;;
74656;SDS011;63185;45.642;13.764;2023-04-24T10:17:52;12.80;;;4.47;;
74656;SDS011;63185;45.642;13.764;2023-04-24T10:20:22;9.82;;;4.10;;
74656;SDS011;63185;45.642;13.764;2023-04-24T10:22:54;11.80;;;4.50;;
74656;SDS011;63185;45.642;13.764;2023-04-24T10:25:23;9.48;;;4.05;;
74656;SDS011;63185;45.642;13.764;2023-04-24T10:27:51;7.95;;;3.67;;
74656;SDS011;63185;45.642;13.764;2023-04-24T10:30:18;10.27;;;3.83;;
74656;SDS011;63185;45.642;13.764;2023-04-24T10:32:45;11.07;;;4.20;;
74656;SDS011;63185;45.642;13.764;2023-04-24T10:35:11;9.25;;;3.70;;
74656;SDS011;63185;45.642;13.764;2023-04-24T10:40:27;7.72;;;3.50;;
74656;SDS011;63185;45.642;13.764;2023-04-24T10:42:59;6.47;;;3.65;;
74656;SDS011;63185;45.642;13.764;2023-04-24T10:45:27;9.00;;;3.85;;
74656;SDS011;63185;45.642;13.764;2023-04-24T10:50:28;7.63;;;4.22;;
74656;SDS011;63185;45.642;13.764;2023-04-24T10:53:07;8.75;;;4.22;;
74656;SDS011;63185;45.642;13.764;2023-04-24T10:55:50;6.43;;;3.67;;
74656;SDS011;63185;45.642;13.764;2023-04-24T11:00:55;9.18;;;4.28;;
74656;SDS011;63185;45.642;13.764;2023-04-24T11:03:28;8.98;;;4.30;;
74656;SDS011;63185;45.642;13.764;2023-04-24T11:06:05;7.93;;;4.32;;
74656;SDS011;63185;45.642;13.764;2023-04-24T11:11:09;9.70;;;4.90;;
74656;SDS011;63185;45.642;13.764;2023-04-24T11:16:30;8.63;;;4.95;;
74656;SDS011;63185;45.642;13.764;2023-04-24T11:19:10;9.05;;;4.90;;
74656;SDS011;63185;45.642;13.764;2023-04-24T11:24:28;8.45;;;4.68;;
74656;SDS011;63185;45.642;13.764;2023-04-24T11:32:15;9.97;;;4.90;;
74656;SDS011;63185;45.642;13.764;2023-04-24T11:35:07;9.40;;;4.65;;
74656;SDS011;63185;45.642;13.764;2023-04-24T11:37:44;9.05;;;4.80;;
74656;SDS011;63185;45.642;13.764;2023-04-24T11:40:12;15.32;;;5.50;;
74656;SDS011;63185;45.642;13.764;2023-04-24T11:42:43;13.93;;;5.65;;
74656;SDS011;63185;45.642;13.764;2023-04-24T11:45:10;9.80;;;5.82;;
74656;SDS011;63185;45.642;13.764;2023-04-24T11:47:38;11.05;;;6.40;;
74656;SDS011;63185;45.642;13.764;2023-04-24T11:50:05;13.38;;;6.82;;
74656;SDS011;63185;45.642;13.764;2023-04-24T11:52:33;14.82;;;5.90;;
74656;SDS011;63185;45.642;13.764;2023-04-24T11:55:02;11.90;;;5.85;;
74656;SDS011;63185;45.642;13.764;2023-04-24T11:57:29;10.52;;;5.25;;
74656;SDS011;63185;45.642;13.764;2023-04-24T11:59:59;9.30;;;4.55;;
74656;SDS011;63185;45.642;13.764;2023-04-24T12:02:26;12.05;;;5.07;;
74656;SDS011;63185;45.642;13.764;2023-04-24T12:04:52;8.60;;;4.38;;
74656;SDS011;63185;45.642;13.764;2023-04-24T12:07:19;12.20;;;4.40;;
74656;SDS011;63185;45.642;13.764;2023-04-24T12:09:49;6.32;;;3.00;;
74656;SDS011;63185;45.642;13.764;2023-04-24T12:12:24;8.55;;;2.75;;
74656;SDS011;63185;45.642;13.764;2023-04-24T12:14:55;7.15;;;3.22;;
74656;SDS011;63185;45.642;13.764;2023-04-24T12:17:26;7.30;;;3.45;;
74656;SDS011;63185;45.642;13.764;2023-04-24T12:20:05;10.48;;;3.58;;
74656;SDS011;63185;45.642;13.764;2023-04-24T12:22:51;8.85;;;3.67;;
74656;SDS011;63185;45.642;13.764;2023-04-24T12:25:20;10.45;;;3.72;;
74656;SDS011;63185;45.642;13.764;2023-04-24T12:30:34;9.82;;;3.80;;
74656;SDS011;63185;45.642;13.764;2023-04-24T12:33:04;10.40;;;4.40;;
74656;SDS011;63185;45.642;13.764;2023-04-24T12:35:30;10.52;;;4.45;;
74656;SDS011;63185;45.642;13.764;2023-04-24T12:43:12;11.02;;;4.32;;
74656;SDS011;63185;45.642;13.764;2023-04-24T12:45:41;13.30;;;4.13;;
74656;SDS011;63185;45.642;13.764;2023-04-24T12:48:07;16.42;;;4.22;;
74656;SDS011;63185;45.642;13.764;2023-04-24T12:50:32;19.70;;;4.80;;
74656;SDS011;63185;45.642;13.764;2023-04-24T12:52:59;21.40;;;4.47;;
74656;SDS011;63185;45.642;13.764;2023-04-24T12:55:25;23.67;;;5.20;;
74656;SDS011;63185;45.642;13.764;2023-04-24T12:57:51;17.90;;;5.05;;
74656;SDS011;63185;45.642;13.764;2023-04-24T13:00:18;14.20;;;3.70;;
74656;SDS011;63185;45.642;13.764;2023-04-24T13:02:45;16.65;;;3.78;;
74656;SDS011;63185;45.642;13.764;2023-04-24T13:05:11;5.50;;;2.00;;
74656;SDS011;63185;45.642;13.764;2023-04-24T13:07:38;5.55;;;1.58;;
74656;SDS011;63185;45.642;13.764;2023-04-24T13:10:05;2.72;;;1.60;;
74656;SDS011;63185;45.642;13.764;2023-04-24T13:12:31;6.40;;;1.60;;
74656;SDS011;63185;45.642;13.764;2023-04-24T13:14:57;9.70;;;1.92;;
74656;SDS011;63185;45.642;13.764;2023-04-24T13:17:23;3.67;;;1.17;;
74656;SDS011;63185;45.642;13.764;2023-04-24T13:19:50;3.95;;;1.10;;
74656;SDS011;63185;45.642;13.764;2023-04-24T13:22:17;3.08;;;1.27;;
74656;SDS011;63185;45.642;13.764;2023-04-24T13:24:46;2.83;;;1.33;;
74656;SDS011;63185;45.642;13.764;2023-04-24T13:27:14;2.72;;;1.08;;
74656;SDS011;63185;45.642;13.764;2023-04-24T13:29:40;5.63;;;1.30;;
74656;SDS011;63185;45.642;13.764;2023-04-24T13:32:07;4.05;;;1.30;;
74656;SDS011;63185;45.642;13.764;2023-04-24T13:34:33;5.88;;;1.50;;
74656;SDS011;63185;45.642;13.764;2023-04-24T13:37:02;3.95;;;1.30;;
74656;SDS011;63185;45.642;13.764;2023-04-24T13:39:28;3.38;;;1.38;;
74656;SDS011;63185;45.642;13.764;2023-04-24T13:41:55;2.85;;;1.23;;
74656;SDS011;63185;45.642;13.764;2023-04-24T13:44:21;4.93;;;1.20;;
74656;SDS011;63185;45.642;13.764;2023-04-24T13:46:49;2.85;;;1.10;;
74656;SDS011;63185;45.642;13.764;2023-04-24T13:49:16;4.03;;;1.20;;
74656;SDS011;63185;45.642;13.764;2023-04-24T13:51:43;3.30;;;1.23;;
74656;SDS011;63185;45.642;13.764;2023-04-24T13:54:09;2.67;;;1.13;;
74656;SDS011;63185;45.642;13.764;2023-04-24T13:56:35;3.50;;;1.00;;
74656;SDS011;63185;45.642;13.764;2023-04-24T13:59:00;4.07;;;1.40;;
74656;SDS011;63185;45.642;13.764;2023-04-24T14:01:27;2.28;;;1.10;;
74656;SDS011;63185;45.642;13.764;2023-04-24T14:03:53;2.42;;;1.17;;
74656;SDS011;63185;45.642;13.764;2023-04-24T14:06:20;4.60;;;0.90;;
74656;SDS011;63185;45.642;13.764;2023-04-24T14:08:47;2.25;;;0.80;;
74656;SDS011;63185;45.642;13.764;2023-04-24T14:11:13;3.97;;;1.00;;
74656;SDS011;63185;45.642;13.764;2023-04-24T14:13:40;3.72;;;0.85;;
74656;SDS011;63185;45.642;13.764;2023-04-24T14:16:06;4.18;;;0.80;;
74656;SDS011;63185;45.642;13.764;2023-04-24T14:18:33;2.28;;;0.70;;
74656;SDS011;63185;45.642;13.764;2023-04-24T14:20:59;2.28;;;0.77;;
74656;SDS011;63185;45.642;13.764;2023-04-24T14:23:26;2.63;;;0.88;;
74656;SDS011;63185;45.642;13.764;2023-04-24T14:25:52;3.97;;;0.75;;
74656;SDS011;63185;45.642;13.764;2023-04-24T14:28:18;2.80;;;0.95;;
74656;SDS011;63185;45.642;13.764;2023-04-24T14:30:45;1.60;;;0.80;;
74656;SDS011;63185;45.642;13.764;2023-04-24T14:33:11;2.35;;;1.17;;
74656;SDS011;63185;45.642;13.764;2023-04-24T14:35:38;2.63;;;1.27;;
74656;SDS011;63185;45.642;13.764;2023-04-24T14:38:04;2.97;;;1.08;;
74656;SDS011;63185;45.642;13.764;2023-04-24T14:40:30;4.82;;;1.08;;
74656;SDS011;63185;45.642;13.764;2023-04-24T14:42:57;3.65;;;1.00;;
74656;SDS011;63185;45.642;13.764;2023-04-24T14:45:26;1.52;;;0.85;;
74656;SDS011;63185;45.642;13.764;2023-04-24T14:47:52;2.03;;;0.93;;
74656;SDS011;63185;45.642;13.764;2023-04-24T14:50:18;2.72;;;1.10;;
74656;SDS011;63185;45.642;13.764;2023-04-24T14:52:44;1.80;;;1.00;;
74656;SDS011;63185;45.642;13.764;2023-04-24T14:55:10;1.73;;;0.90;;
74656;SDS011;63185;45.642;13.764;2023-04-24T14:57:36;2.53;;;1.40;;
74656;SDS011;63185;45.642;13.764;2023-04-24T15:00:03;2.80;;;1.00;;